Johnsburg, Minnesota
Current Conditions -  °F | °C
As of 6:16 PM on Tuesday 25 Nov 2014 (Local Time) from KAUM Reporting Station
Overcast Overcast  
Wind Chill: 14°   Ceiling: 7500
Heat Index: 21°   Visibility: 10mi
Dew Point: 16°   Wind: 6mph
Humidity: 80%   Direction: 140°SE
Pressure: 30.03"   Gusts: NA
Location:  43.5433°N, 92.7489°W
Report Text: KAUM 260016Z AUTO 14005KT 10SM OVC075 M06/M09 A3003 RMK AO2
Loading
Personal Weather Stations






























Interactive Weather Map New forecast layout! Learn more

10-Day Weather Forecast

Advertisements
Track Severe Weather on mobile